createdAt,value
2023-05-08T00:01:58.365Z,4.60
2023-05-08T00:04:26.828Z,4.57
2023-05-08T00:08:01.392Z,4.53
2023-05-08T00:10:30.648Z,4.48
2023-05-08T00:12:59.238Z,4.44
2023-05-08T00:15:27.655Z,4.41
2023-05-08T00:17:56.004Z,4.37
2023-05-08T00:20:24.450Z,4.33
2023-05-08T00:22:52.904Z,4.30
2023-05-08T00:25:21.312Z,4.27
2023-05-08T00:27:50.815Z,4.24
2023-05-08T00:30:19.354Z,4.21
2023-05-08T00:32:47.793Z,4.17
2023-05-08T00:35:19.690Z,4.14
2023-05-08T00:37:48.151Z,4.12
2023-05-08T00:40:16.544Z,4.09
2023-05-08T00:42:44.926Z,4.07
2023-05-08T00:45:13.341Z,4.04
2023-05-08T00:47:42.487Z,4.01
2023-05-08T00:50:11.255Z,3.98
2023-05-08T00:52:40.681Z,3.95
2023-05-08T00:55:09.336Z,3.92
2023-05-08T00:57:38.624Z,3.90
2023-05-08T01:00:08.381Z,3.88
2023-05-08T01:02:37.326Z,3.85
2023-05-08T01:05:06.584Z,3.84
2023-05-08T01:07:35.047Z,3.82
2023-05-08T01:10:03.557Z,3.79
2023-05-08T01:12:52.430Z,3.78
2023-05-08T01:15:38.404Z,3.76
2023-05-08T01:18:26.394Z,3.74
2023-05-08T01:21:13.160Z,3.71
2023-05-08T01:24:22.848Z,3.69
2023-05-08T01:33:01.885Z,3.60
2023-05-08T01:35:40.027Z,3.58
2023-05-08T01:38:47.389Z,3.54
2023-05-08T01:41:28.424Z,3.51
2023-05-08T01:44:15.632Z,3.48
2023-05-08T01:46:51.087Z,3.45
2023-05-08T01:49:58.278Z,3.41
2023-05-08T01:52:34.816Z,3.37
2023-05-08T01:55:35.713Z,3.32
2023-05-08T02:01:25.693Z,3.23
2023-05-08T02:03:56.046Z,3.20
2023-05-08T02:06:27.071Z,3.17
2023-05-08T02:08:57.773Z,3.14
2023-05-08T02:11:26.329Z,3.11
2023-05-08T02:13:57.883Z,3.09
2023-05-08T02:16:27.323Z,3.07
2023-05-08T02:19:07.188Z,3.05
2023-05-08T02:21:40.359Z,3.03
2023-05-08T02:24:09.860Z,3.00
2023-05-08T02:26:39.573Z,2.98
2023-05-08T02:29:09.294Z,2.95
2023-05-08T02:31:39.700Z,2.93
2023-05-08T02:34:09.718Z,2.90
2023-05-08T02:36:39.850Z,2.87
2023-05-08T02:39:14.010Z,2.84
2023-05-08T02:41:42.507Z,2.81
2023-05-08T02:44:11.300Z,2.78
2023-05-08T02:47:13.125Z,2.75
2023-05-08T02:50:00.430Z,2.71
2023-05-08T02:52:33.137Z,2.67
2023-05-08T02:55:10.606Z,2.63
2023-05-08T02:58:04.188Z,2.58
2023-05-08T03:00:40.973Z,2.53
2023-05-08T03:03:19.233Z,2.48
2023-05-08T03:05:53.912Z,2.44
2023-05-08T03:08:34.194Z,2.38
2023-05-08T03:11:25.783Z,2.32
2023-05-08T03:13:58.893Z,2.27
2023-05-08T03:16:32.257Z,2.23
2023-05-08T03:19:07.364Z,2.20
2023-05-08T03:21:37.528Z,2.19
2023-05-08T03:24:07.462Z,2.17
2023-05-08T03:26:36.782Z,2.15
2023-05-08T03:29:06.519Z,2.13
2023-05-08T03:31:36.591Z,2.10
2023-05-08T03:34:05.499Z,2.09
2023-05-08T03:36:34.520Z,2.09
2023-05-08T03:39:03.579Z,2.10
2023-05-08T03:41:32.197Z,2.12
2023-05-08T03:44:03.612Z,2.14
2023-05-08T03:46:34.498Z,2.17
2023-05-08T03:49:05.543Z,2.19
2023-05-08T03:51:37.238Z,2.23
2023-05-08T03:54:05.881Z,2.28
2023-05-08T03:56:34.445Z,2.31
2023-05-08T03:59:29.305Z,2.37
2023-05-08T04:02:56.795Z,2.47
2023-05-08T04:05:39.840Z,2.53
2023-05-08T04:08:17.450Z,2.59
2023-05-08T04:11:13.515Z,2.67
2023-05-08T04:13:50.532Z,2.75
2023-05-08T04:16:27.003Z,2.82
2023-05-08T04:19:03.733Z,2.89
2023-05-08T04:21:35.526Z,2.98
2023-05-08T04:24:07.642Z,3.07
2023-05-08T04:26:37.358Z,3.14
2023-05-08T04:29:07.096Z,3.22
2023-05-08T04:31:37.289Z,3.31
2023-05-08T04:34:08.854Z,3.41
2023-05-08T04:36:38.826Z,3.49
2023-05-08T04:39:07.321Z,3.59
2023-05-08T04:41:35.809Z,3.68
2023-05-08T04:44:04.732Z,3.81
2023-05-08T04:46:33.164Z,3.94
2023-05-08T04:49:01.660Z,4.07
2023-05-08T04:51:30.148Z,4.18
2023-05-08T04:53:59.154Z,4.30
2023-05-08T04:56:27.561Z,4.42
2023-05-08T04:58:56.486Z,4.53
2023-05-08T05:01:24.917Z,4.65
2023-05-08T05:03:53.530Z,4.77
2023-05-08T05:06:22.029Z,4.88
2023-05-08T05:08:50.537Z,5.00
2023-05-08T05:11:18.866Z,5.12
2023-05-08T05:13:47.167Z,5.24
2023-05-08T05:16:15.721Z,5.37
2023-05-08T05:18:44.324Z,5.49
2023-05-08T05:21:13.493Z,5.61
2023-05-08T05:23:42.387Z,5.71
2023-05-08T05:26:11.190Z,5.80
2023-05-08T05:28:39.715Z,5.86
2023-05-08T05:31:09.961Z,5.95
2023-05-08T05:33:38.490Z,6.03
2023-05-08T05:36:08.400Z,6.12
2023-05-08T05:38:36.927Z,6.20
2023-05-08T05:41:05.352Z,6.29
2023-05-08T05:43:33.760Z,6.39
2023-05-08T05:46:09.871Z,6.48
2023-05-08T05:48:38.251Z,6.58
2023-05-08T05:51:06.717Z,6.67
2023-05-08T05:53:35.001Z,6.74
2023-05-08T05:56:03.707Z,6.81
2023-05-08T05:58:32.052Z,6.90
2023-05-08T06:01:01.274Z,6.97
2023-05-08T06:03:29.860Z,7.06
2023-05-08T06:05:59.776Z,7.14
2023-05-08T06:08:28.895Z,7.22
2023-05-08T06:10:57.258Z,7.30
2023-05-08T06:13:25.859Z,7.38
2023-05-08T06:15:58.889Z,7.46
2023-05-08T06:18:27.276Z,7.52
2023-05-08T06:21:01.559Z,7.59
2023-05-08T06:23:33.935Z,7.68
2023-05-08T06:26:02.335Z,7.75
2023-05-08T06:28:30.688Z,7.83
2023-05-08T06:30:59.093Z,7.89
2023-05-08T06:33:27.453Z,7.95
2023-05-08T06:35:56.535Z,8.02
2023-05-08T06:38:24.922Z,8.08
2023-05-08T06:40:54.114Z,8.16
2023-05-08T06:43:22.516Z,8.24
2023-05-08T06:45:53.625Z,8.31
2023-05-08T06:48:22.029Z,8.40
2023-05-08T06:50:52.042Z,8.49
2023-05-08T06:53:20.412Z,8.55
2023-05-08T06:55:48.788Z,8.63
2023-05-08T06:58:17.132Z,8.71
2023-05-08T07:00:46.139Z,8.79
2023-05-08T07:03:15.022Z,8.86
2023-05-08T07:05:43.516Z,8.95
2023-05-08T07:08:11.864Z,9.01
2023-05-08T07:10:40.435Z,9.05
2023-05-08T07:13:08.857Z,9.10
2023-05-08T07:15:39.086Z,9.17
2023-05-08T07:18:07.489Z,9.24
2023-05-08T07:20:35.955Z,9.31
2023-05-08T07:23:04.323Z,9.37
2023-05-08T07:25:33.056Z,9.42
2023-05-08T07:28:01.659Z,9.48
2023-05-08T07:30:30.027Z,9.55
2023-05-08T07:32:58.326Z,9.63
2023-05-08T07:35:26.973Z,9.73
2023-05-08T07:37:55.355Z,9.81
2023-05-08T07:40:23.741Z,9.88
2023-05-08T07:42:52.367Z,9.98
2023-05-08T07:45:26.324Z,10.05
2023-05-08T07:47:58.659Z,10.13
2023-05-08T07:50:27.236Z,10.20
2023-05-08T07:52:55.631Z,10.28
2023-05-08T07:55:24.307Z,10.35
2023-05-08T07:57:52.711Z,10.43
2023-05-08T08:00:21.996Z,10.50
2023-05-08T08:02:50.586Z,10.57
2023-05-08T08:05:19.436Z,10.63
2023-05-08T08:07:48.392Z,10.72
2023-05-08T08:10:17.085Z,10.81
2023-05-08T08:12:45.678Z,10.88
2023-05-08T08:15:14.307Z,10.96
2023-05-08T08:17:42.874Z,11.00
2023-05-08T08:20:11.941Z,11.09
2023-05-08T08:22:40.357Z,11.19
2023-05-08T08:25:09.453Z,11.27
2023-05-08T08:27:37.988Z,11.36
2023-05-08T08:30:17.053Z,11.46
2023-05-08T08:32:47.049Z,11.59
2023-05-08T08:35:15.773Z,11.69
2023-05-08T08:37:45.237Z,11.81
2023-05-08T08:40:13.709Z,11.90
2023-05-08T08:42:42.146Z,12.00
2023-05-08T08:45:11.363Z,12.10
2023-05-08T08:47:42.672Z,12.21
2023-05-08T08:50:14.763Z,12.35
2023-05-08T08:52:59.622Z,12.52
2023-05-08T08:55:29.953Z,12.69
2023-05-08T08:58:29.461Z,12.87
2023-05-08T09:01:00.404Z,13.06
2023-05-08T09:03:29.102Z,13.22
2023-05-08T09:06:03.369Z,13.29
2023-05-08T09:08:32.654Z,13.31
2023-05-08T09:11:02.697Z,13.47
2023-05-08T09:13:31.264Z,13.70
2023-05-08T09:16:00.625Z,14.01
2023-05-08T09:18:29.181Z,14.28
2023-05-08T09:20:57.775Z,14.45
2023-05-08T09:23:26.443Z,14.60
2023-05-08T09:25:54.786Z,14.71
2023-05-08T09:28:26.240Z,14.81
2023-05-08T09:30:57.398Z,14.99
2023-05-08T09:33:28.817Z,15.25
2023-05-08T09:35:57.640Z,15.35
2023-05-08T09:38:36.580Z,15.40
2023-05-08T09:41:16.887Z,15.51
2023-05-08T09:44:01.431Z,15.76
2023-05-08T09:46:31.329Z,16.09
2023-05-08T09:49:02.576Z,16.18
2023-05-08T09:51:32.806Z,16.22
2023-05-08T09:54:04.219Z,16.42
2023-05-08T09:56:34.444Z,16.67
2023-05-08T09:59:22.083Z,16.89
2023-05-08T10:01:51.089Z,16.96
2023-05-08T10:04:40.244Z,16.89
2023-05-08T10:07:08.774Z,16.96
2023-05-08T10:09:49.898Z,17.21
2023-05-08T10:12:21.439Z,17.55
2023-05-08T10:14:51.083Z,17.66
2023-05-08T10:17:27.823Z,17.77
2023-05-08T10:20:03.811Z,18.00
2023-05-08T10:22:36.390Z,18.21
2023-05-08T10:25:10.873Z,18.46
2023-05-08T10:27:52.874Z,18.76
2023-05-08T10:30:26.130Z,19.12
2023-05-08T10:32:56.415Z,19.44
2023-05-08T10:35:25.512Z,19.76
2023-05-08T10:37:55.856Z,19.99
2023-05-08T10:40:24.424Z,20.14
2023-05-08T10:42:53.903Z,20.34
2023-05-08T10:45:22.536Z,20.60
2023-05-08T10:48:08.109Z,20.79
2023-05-08T10:51:18.834Z,20.98
2023-05-08T10:54:07.021Z,21.27
2023-05-08T10:56:39.576Z,21.56
2023-05-08T10:59:18.760Z,21.89
2023-05-08T11:01:50.729Z,22.24
2023-05-08T11:04:23.949Z,22.53
2023-05-08T11:06:55.333Z,22.81
2023-05-08T11:09:45.738Z,23.05
2023-05-08T11:12:27.689Z,23.12
2023-05-08T11:15:06.746Z,23.24
2023-05-08T11:17:35.900Z,23.31
2023-05-08T11:20:06.968Z,23.40
2023-05-08T11:22:37.177Z,23.65
2023-05-08T11:25:14.638Z,23.88
2023-05-08T11:27:49.326Z,24.15
2023-05-08T11:30:33.692Z,24.43
2023-05-08T11:33:05.368Z,24.57
2023-05-08T11:35:49.125Z,24.66
2023-05-08T11:38:23.897Z,24.83
2023-05-08T11:40:58.534Z,24.97
2023-05-08T11:43:32.973Z,25.17
2023-05-08T11:46:21.852Z,25.33
2023-05-08T11:49:01.454Z,25.50
2023-05-08T11:51:33.911Z,25.71
2023-05-08T11:54:03.096Z,25.99
2023-05-08T11:56:31.705Z,26.30
2023-05-08T11:59:11.631Z,26.39
2023-05-08T12:01:40.248Z,26.53
2023-05-08T12:04:11.753Z,26.76
2023-05-08T12:06:42.279Z,27.05
2023-05-08T12:09:19.067Z,27.24
2023-05-08T12:11:47.647Z,27.41
2023-05-08T12:14:18.136Z,27.63
2023-05-08T12:16:46.603Z,27.87
2023-05-08T12:19:15.322Z,28.06
2023-05-08T12:21:51.534Z,28.25
2023-05-08T12:24:23.547Z,28.46
2023-05-08T12:26:56.567Z,28.56
2023-05-08T12:29:27.352Z,28.79
2023-05-08T12:31:56.022Z,29.11
2023-05-08T12:34:24.575Z,29.31
2023-05-08T12:37:03.513Z,29.42
2023-05-08T12:39:37.588Z,29.59
2023-05-08T12:42:06.175Z,29.83
2023-05-08T12:44:34.536Z,30.00
2023-05-08T12:47:05.160Z,30.21
2023-05-08T12:49:33.579Z,30.52
2023-05-08T12:52:12.434Z,30.80
2023-05-08T12:54:48.420Z,30.98
2023-05-08T12:57:19.658Z,31.15
2023-05-08T12:59:49.084Z,31.16
2023-05-08T13:02:23.866Z,31.12
2023-05-08T13:04:56.557Z,31.21
2023-05-08T13:07:31.465Z,31.25
2023-05-08T13:10:04.679Z,31.25
2023-05-08T13:12:34.178Z,31.30
2023-05-08T13:15:04.742Z,31.09
2023-05-08T13:17:33.155Z,30.74
2023-05-08T13:20:05.200Z,30.66
2023-05-08T13:22:34.548Z,30.89
2023-05-08T13:25:03.951Z,31.19
2023-05-08T13:27:32.339Z,31.47
2023-05-08T13:30:00.835Z,31.42
2023-05-08T13:32:29.218Z,31.49
2023-05-08T13:35:13.419Z,31.71
2023-05-08T13:37:43.433Z,32.07
2023-05-08T13:40:14.283Z,32.50
2023-05-08T13:42:43.168Z,32.87
2023-05-08T13:45:14.358Z,33.11
2023-05-08T13:47:43.702Z,33.48
2023-05-08T13:50:14.997Z,33.98
2023-05-08T13:52:43.328Z,34.42
2023-05-08T13:55:13.707Z,34.77
2023-05-08T13:57:42.471Z,35.03
2023-05-08T14:00:12.128Z,35.26
2023-05-08T14:02:40.668Z,35.54
2023-05-08T14:05:09.419Z,35.70
2023-05-08T14:07:38.023Z,35.99
2023-05-08T14:10:06.897Z,35.94
2023-05-08T14:12:38.327Z,35.84
2023-05-08T14:15:07.809Z,36.07
2023-05-08T14:17:36.328Z,36.37
2023-05-08T14:20:05.571Z,36.54
2023-05-08T14:22:34.013Z,36.13
2023-05-08T14:25:02.526Z,35.87
2023-05-08T14:27:30.917Z,36.07
2023-05-08T14:29:59.240Z,36.48
2023-05-08T14:32:27.757Z,36.85
2023-05-08T14:34:56.115Z,37.35
2023-05-08T14:37:24.521Z,37.67
2023-05-08T14:39:54.203Z,37.94
2023-05-08T14:42:23.847Z,38.14
2023-05-08T14:44:52.402Z,38.26
2023-05-08T14:47:21.009Z,38.61
2023-05-08T14:49:49.302Z,39.04
2023-05-08T14:52:17.604Z,39.41
2023-05-08T14:54:48.012Z,39.70
2023-05-08T14:57:16.474Z,39.91
2023-05-08T14:59:54.184Z,40.26
2023-05-08T15:02:24.172Z,40.62
2023-05-08T15:04:52.865Z,40.81
2023-05-08T15:07:21.385Z,41.03
2023-05-08T15:09:51.572Z,41.28
2023-05-08T15:12:20.567Z,41.65
2023-05-08T15:14:49.337Z,41.90
2023-05-08T15:17:17.766Z,42.06
2023-05-08T15:19:46.241Z,42.24
2023-05-08T15:22:14.779Z,42.52
2023-05-08T15:24:45.341Z,42.71
2023-05-08T15:27:14.243Z,42.87
2023-05-08T15:29:42.701Z,43.07
2023-05-08T15:32:11.142Z,43.30
2023-05-08T15:34:40.731Z,43.39
2023-05-08T15:37:09.184Z,43.51
2023-05-08T15:39:37.671Z,43.61
2023-05-08T15:42:06.350Z,43.81
2023-05-08T15:44:53.289Z,44.14
2023-05-08T15:47:23.962Z,44.39
2023-05-08T15:49:52.797Z,44.53
2023-05-08T15:52:21.380Z,44.61
2023-05-08T15:54:50.639Z,44.52
2023-05-08T15:57:19.104Z,44.38
2023-05-08T15:59:47.535Z,44.35
2023-05-08T16:02:16.092Z,44.52
2023-05-08T16:04:45.160Z,44.58
2023-05-08T16:07:15.299Z,44.61
2023-05-08T16:09:43.690Z,44.73
2023-05-08T16:12:12.128Z,44.75
2023-05-08T16:14:40.518Z,44.51
2023-05-08T16:17:08.848Z,44.55
2023-05-08T16:19:40.992Z,44.64
2023-05-08T16:22:09.452Z,44.63
2023-05-08T16:24:37.878Z,44.57
2023-05-08T16:27:06.582Z,44.32
2023-05-08T16:29:35.000Z,44.23
2023-05-08T16:32:03.408Z,44.21
2023-05-08T16:34:32.034Z,44.17
2023-05-08T16:37:01.500Z,44.13
2023-05-08T16:39:29.891Z,44.10
2023-05-08T16:41:58.296Z,44.06
2023-05-08T16:44:26.760Z,43.91
2023-05-08T16:46:55.738Z,43.88
2023-05-08T16:49:24.080Z,43.87
2023-05-08T16:51:52.479Z,43.65
2023-05-08T16:54:20.882Z,43.33
2023-05-08T16:56:49.205Z,42.97
2023-05-08T16:59:17.529Z,42.64
2023-05-08T17:01:45.903Z,42.39
2023-05-08T17:04:14.603Z,42.11
2023-05-08T17:06:42.972Z,41.89
2023-05-08T17:09:11.395Z,41.65
2023-05-08T17:11:39.924Z,41.46
2023-05-08T17:14:08.256Z,41.28
2023-05-08T17:16:38.170Z,40.91
2023-05-08T17:19:06.988Z,40.67
2023-05-08T17:21:35.450Z,40.32
2023-05-08T17:24:04.216Z,39.93
2023-05-08T17:26:33.727Z,39.57
2023-05-08T17:29:02.730Z,39.14
2023-05-08T17:31:31.412Z,38.78
2023-05-08T17:33:59.861Z,38.27
2023-05-08T17:36:28.337Z,37.79
2023-05-08T17:38:56.709Z,37.18
2023-05-08T17:41:25.237Z,36.54
2023-05-08T17:43:54.097Z,35.67
2023-05-08T17:46:22.513Z,34.33
2023-05-08T17:48:51.332Z,33.35
2023-05-08T17:51:19.833Z,32.55
2023-05-08T17:53:52.890Z,31.95
2023-05-08T17:56:23.360Z,31.28
2023-05-08T17:58:53.766Z,30.06
2023-05-08T18:01:22.157Z,28.62
2023-05-08T18:03:52.807Z,27.33
2023-05-08T18:06:21.742Z,26.11
2023-05-08T18:08:50.118Z,25.03
2023-05-08T18:11:27.496Z,24.06
2023-05-08T18:13:55.923Z,23.12
2023-05-08T18:16:24.373Z,22.41
2023-05-08T18:18:52.874Z,21.71
2023-05-08T18:21:21.271Z,21.06
2023-05-08T18:23:54.252Z,20.41
2023-05-08T18:26:25.544Z,19.76
2023-05-08T18:28:53.936Z,19.24
2023-05-08T18:31:22.344Z,18.74
2023-05-08T18:33:50.729Z,18.29
2023-05-08T18:36:19.157Z,17.85
2023-05-08T18:38:47.725Z,17.44
2023-05-08T18:41:16.206Z,17.09
2023-05-08T18:43:44.949Z,16.74
2023-05-08T18:46:14.419Z,16.41
2023-05-08T18:48:43.564Z,16.05
2023-05-08T18:51:12.300Z,15.71
2023-05-08T18:53:40.893Z,15.39
2023-05-08T18:56:09.338Z,15.09
2023-05-08T18:58:37.805Z,14.80
2023-05-08T19:01:06.592Z,14.53
2023-05-08T19:03:35.056Z,14.27
2023-05-08T19:06:03.997Z,13.98
2023-05-08T19:08:32.341Z,13.71
2023-05-08T19:11:00.719Z,13.49
2023-05-08T19:13:29.185Z,13.28
2023-05-08T19:15:57.723Z,13.07
2023-05-08T19:18:26.190Z,12.85
2023-05-08T19:20:54.613Z,12.65
2023-05-08T19:23:23.424Z,12.47
2023-05-08T19:25:52.813Z,12.31
2023-05-08T19:28:21.218Z,12.13
2023-05-08T19:30:49.780Z,11.96
2023-05-08T19:33:20.778Z,11.81
2023-05-08T19:35:49.585Z,11.66
2023-05-08T19:38:18.150Z,11.52
2023-05-08T19:40:56.324Z,11.41
2023-05-08T19:43:26.554Z,11.29
2023-05-08T19:45:55.704Z,11.17
2023-05-08T19:48:24.717Z,11.07
2023-05-08T19:50:55.062Z,10.95
2023-05-08T19:53:23.776Z,10.83
2023-05-08T19:55:52.341Z,10.69
2023-05-08T19:58:20.862Z,10.56
2023-05-08T20:00:51.520Z,10.42
2023-05-08T20:03:20.665Z,10.29
2023-05-08T20:05:51.798Z,10.16
2023-05-08T20:08:20.245Z,10.07
2023-05-08T20:10:49.149Z,9.99
2023-05-08T20:13:17.876Z,9.89
2023-05-08T20:15:46.356Z,9.80
2023-05-08T20:18:14.796Z,9.73
2023-05-08T20:20:45.108Z,9.65
2023-05-08T20:23:13.502Z,9.58
2023-05-08T20:25:46.054Z,9.52
2023-05-08T20:28:15.522Z,9.45
2023-05-08T20:30:43.956Z,9.38
2023-05-08T20:33:12.393Z,9.29
2023-05-08T20:35:40.774Z,9.21
2023-05-08T20:38:09.152Z,9.14
2023-05-08T20:40:37.756Z,9.09
2023-05-08T20:43:06.116Z,9.03
2023-05-08T20:45:34.525Z,8.96
2023-05-08T20:48:03.438Z,8.89
2023-05-08T20:50:31.951Z,8.84
2023-05-08T20:53:00.299Z,8.79
2023-05-08T20:55:28.750Z,8.73
2023-05-08T20:57:59.360Z,8.69
2023-05-08T21:00:27.804Z,8.64
2023-05-08T21:02:56.275Z,8.60
2023-05-08T21:05:24.690Z,8.55
2023-05-08T21:07:58.474Z,8.50
2023-05-08T21:10:30.626Z,8.45
2023-05-08T21:12:59.063Z,8.41
2023-05-08T21:15:27.491Z,8.36
2023-05-08T21:17:57.100Z,8.31
2023-05-08T21:20:25.708Z,8.25
2023-05-08T21:22:54.160Z,8.20
2023-05-08T21:25:22.581Z,8.15
2023-05-08T21:27:51.645Z,8.10
2023-05-08T21:30:21.321Z,8.05
2023-05-08T21:32:49.743Z,8.00
2023-05-08T21:35:18.276Z,7.94
2023-05-08T21:37:46.616Z,7.86
2023-05-08T21:40:14.943Z,7.81
2023-05-08T21:42:43.265Z,7.76
2023-05-08T21:45:11.920Z,7.71
2023-05-08T21:47:40.536Z,7.67
2023-05-08T21:50:09.635Z,7.63
2023-05-08T21:52:38.008Z,7.59
2023-05-08T21:55:08.696Z,7.54
2023-05-08T21:57:37.544Z,7.50
2023-05-08T22:00:09.392Z,7.45
2023-05-08T22:02:37.817Z,7.39
2023-05-08T22:05:07.646Z,7.34
2023-05-08T22:07:36.009Z,7.29
2023-05-08T22:10:05.282Z,7.24
2023-05-08T22:12:33.600Z,7.20
2023-05-08T22:15:02.553Z,7.16
2023-05-08T22:17:31.520Z,7.11
2023-05-08T22:19:59.858Z,7.09
2023-05-08T22:22:28.458Z,7.06
2023-05-08T22:24:57.439Z,7.04
2023-05-08T22:27:25.849Z,7.01
2023-05-08T22:29:54.422Z,7.00
2023-05-08T22:32:24.374Z,6.97
2023-05-08T22:34:52.916Z,6.94
2023-05-08T22:37:22.268Z,6.90
2023-05-08T22:39:50.860Z,6.87
2023-05-08T22:42:19.343Z,6.84
2023-05-08T22:44:48.190Z,6.81
2023-05-08T22:47:16.994Z,6.79
2023-05-08T22:49:45.430Z,6.76
2023-05-08T22:52:13.774Z,6.73
2023-05-08T22:54:42.049Z,6.70
2023-05-08T22:57:10.403Z,6.67
2023-05-08T22:59:38.745Z,6.64
2023-05-08T23:02:07.123Z,6.61
2023-05-08T23:04:35.574Z,6.57
2023-05-08T23:07:03.939Z,6.55
2023-05-08T23:09:32.340Z,6.52
2023-05-08T23:12:00.659Z,6.48
2023-05-08T23:14:29.071Z,6.42
2023-05-08T23:16:57.495Z,6.38
2023-05-08T23:19:25.958Z,6.33
2023-05-08T23:21:54.357Z,6.27
2023-05-08T23:24:22.669Z,6.23
2023-05-08T23:26:52.485Z,6.19
2023-05-08T23:29:20.920Z,6.15
2023-05-08T23:31:49.320Z,6.12
2023-05-08T23:34:17.696Z,6.09
2023-05-08T23:36:46.172Z,6.06
2023-05-08T23:39:14.578Z,6.02
2023-05-08T23:41:42.929Z,5.97
2023-05-08T23:44:11.549Z,5.94
2023-05-08T23:46:39.929Z,5.91
2023-05-08T23:49:08.610Z,5.87
2023-05-08T23:51:37.083Z,5.83
2023-05-08T23:54:05.789Z,5.80
2023-05-08T23:56:34.104Z,5.77
2023-05-08T23:59:02.475Z,5.74
